sensor_id;sensor_type;location;lat;lon;timestamp;temperature;humidity
5850;DHT22;2951;47.712;9.400;2022-10-31T00:01:54;8.70;99.90
5850;DHT22;2951;47.712;9.400;2022-10-31T00:04:21;8.70;99.90
5850;DHT22;2951;47.712;9.400;2022-10-31T00:06:48;8.70;99.90
5850;DHT22;2951;47.712;9.400;2022-10-31T00:09:14;8.70;99.90
5850;DHT22;2951;47.712;9.400;2022-10-31T00:11:41;8.70;99.90
5850;DHT22;2951;47.712;9.400;2022-10-31T00:14:08;8.60;99.90
5850;DHT22;2951;47.712;9.400;2022-10-31T00:16:34;8.70;99.90
5850;DHT22;2951;47.712;9.400;2022-10-31T00:19:02;8.80;99.90
5850;DHT22;2951;47.712;9.400;2022-10-31T00:21:30;8.90;99.90
5850;DHT22;2951;47.712;9.400;2022-10-31T00:23:57;9.00;99.90
5850;DHT22;2951;47.712;9.400;2022-10-31T00:26:26;9.10;99.90
5850;DHT22;2951;47.712;9.400;2022-10-31T00:28:52;9.20;99.90
5850;DHT22;2951;47.712;9.400;2022-10-31T00:31:19;9.30;99.90
5850;DHT22;2951;47.712;9.400;2022-10-31T00:33:45;9.40;99.90
5850;DHT22;2951;47.712;9.400;2022-10-31T00:36:13;9.50;99.90
5850;DHT22;2951;47.712;9.400;2022-10-31T00:38:40;9.50;99.90
5850;DHT22;2951;47.712;9.400;2022-10-31T00:41:07;9.40;99.90
5850;DHT22;2951;47.712;9.400;2022-10-31T00:43:34;9.50;99.90
5850;DHT22;2951;47.712;9.400;2022-10-31T00:46:01;9.40;99.90
5850;DHT22;2951;47.712;9.400;2022-10-31T00:48:28;9.40;99.90
5850;DHT22;2951;47.712;9.400;2022-10-31T00:50:54;9.40;99.90
5850;DHT22;2951;47.712;9.400;2022-10-31T00:53:21;9.40;99.90
5850;DHT22;2951;47.712;9.400;2022-10-31T00:55:48;9.40;99.90
5850;DHT22;2951;47.712;9.400;2022-10-31T00:58:14;9.40;99.90
5850;DHT22;2951;47.712;9.400;2022-10-31T01:00:41;9.50;99.90
5850;DHT22;2951;47.712;9.400;2022-10-31T01:03:10;9.50;99.90
5850;DHT22;2951;47.712;9.400;2022-10-31T01:05:36;9.50;99.90
5850;DHT22;2951;47.712;9.400;2022-10-31T01:08:03;9.50;99.90
5850;DHT22;2951;47.712;9.400;2022-10-31T01:10:30;9.50;99.90
5850;DHT22;2951;47.712;9.400;2022-10-31T01:12:56;9.30;99.90
5850;DHT22;2951;47.712;9.400;2022-10-31T01:15:23;9.40;99.90
5850;DHT22;2951;47.712;9.400;2022-10-31T01:17:50;9.30;99.90
5850;DHT22;2951;47.712;9.400;2022-10-31T01:20:17;9.20;99.90
5850;DHT22;2951;47.712;9.400;2022-10-31T01:22:44;9.20;99.90
5850;DHT22;2951;47.712;9.400;2022-10-31T01:25:11;9.20;99.90
5850;DHT22;2951;47.712;9.400;2022-10-31T01:27:37;9.30;99.90
5850;DHT22;2951;47.712;9.400;2022-10-31T01:30:04;9.40;99.90
5850;DHT22;2951;47.712;9.400;2022-10-31T01:32:31;9.40;99.90
5850;DHT22;2951;47.712;9.400;2022-10-31T01:34:58;9.50;99.90
5850;DHT22;2951;47.712;9.400;2022-10-31T01:37:25;9.50;99.90
5850;DHT22;2951;47.712;9.400;2022-10-31T01:39:52;9.60;99.90
5850;DHT22;2951;47.712;9.400;2022-10-31T01:42:19;9.50;99.90
5850;DHT22;2951;47.712;9.400;2022-10-31T01:44:53;9.50;99.90
5850;DHT22;2951;47.712;9.400;2022-10-31T01:47:26;9.50;99.90
5850;DHT22;2951;47.712;9.400;2022-10-31T01:49:56;9.50;99.90
5850;DHT22;2951;47.712;9.400;2022-10-31T01:52:25;9.50;99.90
5850;DHT22;2951;47.712;9.400;2022-10-31T01:55:00;9.50;99.90
5850;DHT22;2951;47.712;9.400;2022-10-31T01:57:29;9.50;99.90
5850;DHT22;2951;47.712;9.400;2022-10-31T01:59:57;9.60;99.90
5850;DHT22;2951;47.712;9.400;2022-10-31T02:02:26;9.70;99.90
5850;DHT22;2951;47.712;9.400;2022-10-31T02:04:54;9.80;99.90
5850;DHT22;2951;47.712;9.400;2022-10-31T02:07:23;9.90;99.90
5850;DHT22;2951;47.712;9.400;2022-10-31T02:09:51;9.80;99.90
5850;DHT22;2951;47.712;9.400;2022-10-31T02:12:19;9.80;99.90
5850;DHT22;2951;47.712;9.400;2022-10-31T02:14:46;9.80;99.90
5850;DHT22;2951;47.712;9.400;2022-10-31T02:17:13;9.80;99.90
5850;DHT22;2951;47.712;9.400;2022-10-31T02:19:50;9.90;99.90
5850;DHT22;2951;47.712;9.400;2022-10-31T02:30:11;9.90;99.90
5850;DHT22;2951;47.712;9.400;2022-10-31T02:32:50;10.00;99.90
5850;DHT22;2951;47.712;9.400;2022-10-31T02:35:25;10.10;99.90
5850;DHT22;2951;47.712;9.400;2022-10-31T02:40:23;10.20;99.90
5850;DHT22;2951;47.712;9.400;2022-10-31T02:42:54;10.20;99.90
5850;DHT22;2951;47.712;9.400;2022-10-31T02:45:27;10.10;99.90
5850;DHT22;2951;47.712;9.400;2022-10-31T02:47:55;10.10;99.90
5850;DHT22;2951;47.712;9.400;2022-10-31T02:50:29;10.10;99.90
5850;DHT22;2951;47.712;9.400;2022-10-31T02:52:57;10.10;99.90
5850;DHT22;2951;47.712;9.400;2022-10-31T02:57:51;10.10;99.90
5850;DHT22;2951;47.712;9.400;2022-10-31T03:00:18;10.20;99.90
5850;DHT22;2951;47.712;9.400;2022-10-31T03:05:14;10.10;99.90
5850;DHT22;2951;47.712;9.400;2022-10-31T03:10:33;10.00;99.90
5850;DHT22;2951;47.712;9.400;2022-10-31T03:15:32;10.00;99.90
5850;DHT22;2951;47.712;9.400;2022-10-31T03:20:31;9.90;99.90
5850;DHT22;2951;47.712;9.400;2022-10-31T03:23:01;9.90;99.90
5850;DHT22;2951;47.712;9.400;2022-10-31T03:25:29;10.00;99.90
5850;DHT22;2951;47.712;9.400;2022-10-31T03:27:56;10.00;99.90
5850;DHT22;2951;47.712;9.400;2022-10-31T03:30:24;9.90;99.90
5850;DHT22;2951;47.712;9.400;2022-10-31T03:32:51;9.90;99.90
5850;DHT22;2951;47.712;9.400;2022-10-31T03:35:20;9.90;99.90
5850;DHT22;2951;47.712;9.400;2022-10-31T03:37:49;9.90;99.90
5850;DHT22;2951;47.712;9.400;2022-10-31T03:40:16;9.80;99.90
5850;DHT22;2951;47.712;9.400;2022-10-31T03:42:46;9.80;99.90
5850;DHT22;2951;47.712;9.400;2022-10-31T03:45:16;9.90;99.90
5850;DHT22;2951;47.712;9.400;2022-10-31T03:47:44;10.00;99.90
5850;DHT22;2951;47.712;9.400;2022-10-31T03:50:12;10.00;99.90
5850;DHT22;2951;47.712;9.400;2022-10-31T03:52:47;10.00;99.90
5850;DHT22;2951;47.712;9.400;2022-10-31T03:55:19;10.00;99.90
5850;DHT22;2951;47.712;9.400;2022-10-31T03:57:57;10.10;99.90
5850;DHT22;2951;47.712;9.400;2022-10-31T04:00:24;10.10;99.90
5850;DHT22;2951;47.712;9.400;2022-10-31T04:02:58;10.10;99.90
5850;DHT22;2951;47.712;9.400;2022-10-31T04:05:27;10.10;99.90
5850;DHT22;2951;47.712;9.400;2022-10-31T04:07:54;10.20;99.90
5850;DHT22;2951;47.712;9.400;2022-10-31T04:10:22;10.10;99.90
5850;DHT22;2951;47.712;9.400;2022-10-31T04:12:54;10.20;99.90
5850;DHT22;2951;47.712;9.400;2022-10-31T04:15:23;10.20;99.90
5850;DHT22;2951;47.712;9.400;2022-10-31T04:17:50;10.20;99.90
5850;DHT22;2951;47.712;9.400;2022-10-31T04:20:18;10.20;99.90
5850;DHT22;2951;47.712;9.400;2022-10-31T04:22:45;10.10;99.90
5850;DHT22;2951;47.712;9.400;2022-10-31T04:25:12;10.10;99.90
5850;DHT22;2951;47.712;9.400;2022-10-31T04:27:38;10.10;99.90
5850;DHT22;2951;47.712;9.400;2022-10-31T04:30:05;10.10;99.90
5850;DHT22;2951;47.712;9.400;2022-10-31T04:32:32;10.10;99.90
5850;DHT22;2951;47.712;9.400;2022-10-31T04:34:59;10.00;99.90
5850;DHT22;2951;47.712;9.400;2022-10-31T04:37:25;10.00;99.90
5850;DHT22;2951;47.712;9.400;2022-10-31T04:39:52;10.00;99.90
5850;DHT22;2951;47.712;9.400;2022-10-31T04:42:18;9.90;99.90
5850;DHT22;2951;47.712;9.400;2022-10-31T04:44:45;10.00;99.90
5850;DHT22;2951;47.712;9.400;2022-10-31T04:47:12;9.90;99.90
5850;DHT22;2951;47.712;9.400;2022-10-31T04:49:38;9.80;99.90
5850;DHT22;2951;47.712;9.400;2022-10-31T04:52:05;9.80;99.90
5850;DHT22;2951;47.712;9.400;2022-10-31T04:54:33;9.70;99.90
5850;DHT22;2951;47.712;9.400;2022-10-31T04:57:00;9.70;99.90
5850;DHT22;2951;47.712;9.400;2022-10-31T04:59:26;9.70;99.90
5850;DHT22;2951;47.712;9.400;2022-10-31T05:01:53;9.80;99.90
5850;DHT22;2951;47.712;9.400;2022-10-31T05:04:20;9.80;99.90
5850;DHT22;2951;47.712;9.400;2022-10-31T05:06:46;9.80;99.90
5850;DHT22;2951;47.712;9.400;2022-10-31T05:09:13;9.60;99.90
5850;DHT22;2951;47.712;9.400;2022-10-31T05:11:40;9.40;99.90
5850;DHT22;2951;47.712;9.400;2022-10-31T05:14:06;9.50;99.90
5850;DHT22;2951;47.712;9.400;2022-10-31T05:16:33;9.60;99.90
5850;DHT22;2951;47.712;9.400;2022-10-31T05:19:00;9.70;99.90
5850;DHT22;2951;47.712;9.400;2022-10-31T05:21:26;9.70;99.90
5850;DHT22;2951;47.712;9.400;2022-10-31T05:23:53;9.50;99.90
5850;DHT22;2951;47.712;9.400;2022-10-31T05:26:19;9.50;99.90
5850;DHT22;2951;47.712;9.400;2022-10-31T05:28:46;9.50;99.90
5850;DHT22;2951;47.712;9.400;2022-10-31T05:31:13;9.60;99.90
5850;DHT22;2951;47.712;9.400;2022-10-31T05:33:39;9.40;99.90
5850;DHT22;2951;47.712;9.400;2022-10-31T05:36:06;9.40;99.90
5850;DHT22;2951;47.712;9.400;2022-10-31T05:38:33;9.40;99.90
5850;DHT22;2951;47.712;9.400;2022-10-31T05:40:59;9.40;99.90
5850;DHT22;2951;47.712;9.400;2022-10-31T05:43:27;9.40;99.90
5850;DHT22;2951;47.712;9.400;2022-10-31T05:45:55;9.50;99.90
5850;DHT22;2951;47.712;9.400;2022-10-31T05:48:22;9.50;99.90
5850;DHT22;2951;47.712;9.400;2022-10-31T05:50:49;9.40;99.90
5850;DHT22;2951;47.712;9.400;2022-10-31T05:53:16;9.40;99.90
5850;DHT22;2951;47.712;9.400;2022-10-31T05:55:43;9.40;99.90
5850;DHT22;2951;47.712;9.400;2022-10-31T05:58:10;9.40;99.90
5850;DHT22;2951;47.712;9.400;2022-10-31T06:00:37;9.20;99.90
5850;DHT22;2951;47.712;9.400;2022-10-31T06:03:04;9.20;99.90
5850;DHT22;2951;47.712;9.400;2022-10-31T06:05:32;9.20;99.90
5850;DHT22;2951;47.712;9.400;2022-10-31T06:07:58;9.10;99.90
5850;DHT22;2951;47.712;9.400;2022-10-31T06:10:26;9.20;99.90
5850;DHT22;2951;47.712;9.400;2022-10-31T06:12:52;9.20;99.90
5850;DHT22;2951;47.712;9.400;2022-10-31T06:15:19;9.30;99.90
5850;DHT22;2951;47.712;9.400;2022-10-31T06:18:02;9.30;99.90
5850;DHT22;2951;47.712;9.400;2022-10-31T06:20:30;9.30;99.90
5850;DHT22;2951;47.712;9.400;2022-10-31T06:22:56;9.30;99.90
5850;DHT22;2951;47.712;9.400;2022-10-31T06:25:24;9.30;99.90
5850;DHT22;2951;47.712;9.400;2022-10-31T06:27:50;9.20;99.90
5850;DHT22;2951;47.712;9.400;2022-10-31T06:30:17;9.20;99.90
5850;DHT22;2951;47.712;9.400;2022-10-31T06:32:43;9.30;99.90
5850;DHT22;2951;47.712;9.400;2022-10-31T06:35:10;9.40;99.90
5850;DHT22;2951;47.712;9.400;2022-10-31T06:37:37;9.40;99.90
5850;DHT22;2951;47.712;9.400;2022-10-31T06:40:04;9.50;99.90
5850;DHT22;2951;47.712;9.400;2022-10-31T06:42:31;9.40;99.90
5850;DHT22;2951;47.712;9.400;2022-10-31T06:44:57;9.60;99.90
5850;DHT22;2951;47.712;9.400;2022-10-31T06:47:24;9.70;99.90
5850;DHT22;2951;47.712;9.400;2022-10-31T06:49:50;9.70;99.90
5850;DHT22;2951;47.712;9.400;2022-10-31T06:52:17;9.80;99.90
5850;DHT22;2951;47.712;9.400;2022-10-31T06:54:44;9.80;99.90
5850;DHT22;2951;47.712;9.400;2022-10-31T06:57:10;9.90;99.90
5850;DHT22;2951;47.712;9.400;2022-10-31T06:59:37;9.80;99.90
5850;DHT22;2951;47.712;9.400;2022-10-31T07:02:04;9.80;99.90
5850;DHT22;2951;47.712;9.400;2022-10-31T07:04:31;9.80;99.90
5850;DHT22;2951;47.712;9.400;2022-10-31T07:06:57;9.90;99.90
5850;DHT22;2951;47.712;9.400;2022-10-31T07:09:24;9.80;99.90
5850;DHT22;2951;47.712;9.400;2022-10-31T07:11:51;9.80;99.90
5850;DHT22;2951;47.712;9.400;2022-10-31T07:14:18;9.80;99.90
5850;DHT22;2951;47.712;9.400;2022-10-31T07:16:49;9.90;99.90
5850;DHT22;2951;47.712;9.400;2022-10-31T07:19:16;10.00;99.90
5850;DHT22;2951;47.712;9.400;2022-10-31T07:21:43;10.00;99.90
5850;DHT22;2951;47.712;9.400;2022-10-31T07:24:10;10.00;99.90
5850;DHT22;2951;47.712;9.400;2022-10-31T07:26:36;10.10;99.90
5850;DHT22;2951;47.712;9.400;2022-10-31T07:29:03;10.10;99.90
5850;DHT22;2951;47.712;9.400;2022-10-31T07:31:45;10.20;99.90
5850;DHT22;2951;47.712;9.400;2022-10-31T07:34:12;10.20;99.90
5850;DHT22;2951;47.712;9.400;2022-10-31T07:36:38;10.20;99.90
5850;DHT22;2951;47.712;9.400;2022-10-31T07:39:05;10.20;99.90
5850;DHT22;2951;47.712;9.400;2022-10-31T07:41:32;10.20;99.90
5850;DHT22;2951;47.712;9.400;2022-10-31T07:43:59;10.20;99.90
5850;DHT22;2951;47.712;9.400;2022-10-31T07:46:25;10.20;99.90
5850;DHT22;2951;47.712;9.400;2022-10-31T07:48:52;10.20;99.90
5850;DHT22;2951;47.712;9.400;2022-10-31T07:51:19;10.20;99.90
5850;DHT22;2951;47.712;9.400;2022-10-31T07:53:45;10.40;99.90
5850;DHT22;2951;47.712;9.400;2022-10-31T07:56:12;10.40;99.90
5850;DHT22;2951;47.712;9.400;2022-10-31T07:58:38;10.30;99.90
5850;DHT22;2951;47.712;9.400;2022-10-31T08:01:05;10.20;99.90
5850;DHT22;2951;47.712;9.400;2022-10-31T08:03:32;10.30;99.90
5850;DHT22;2951;47.712;9.400;2022-10-31T08:05:59;10.20;99.90
5850;DHT22;2951;47.712;9.400;2022-10-31T08:08:25;10.20;99.90
5850;DHT22;2951;47.712;9.400;2022-10-31T08:10:57;10.30;99.90
5850;DHT22;2951;47.712;9.400;2022-10-31T08:13:24;10.30;99.90
5850;DHT22;2951;47.712;9.400;2022-10-31T08:15:50;10.40;99.90
5850;DHT22;2951;47.712;9.400;2022-10-31T08:18:19;10.50;99.90
5850;DHT22;2951;47.712;9.400;2022-10-31T08:20:48;10.50;99.90
5850;DHT22;2951;47.712;9.400;2022-10-31T08:23:14;10.40;99.90
5850;DHT22;2951;47.712;9.400;2022-10-31T08:25:42;10.40;99.90
5850;DHT22;2951;47.712;9.400;2022-10-31T08:28:09;10.50;99.90
5850;DHT22;2951;47.712;9.400;2022-10-31T08:30:37;10.70;99.90
5850;DHT22;2951;47.712;9.400;2022-10-31T08:33:09;10.70;99.90
5850;DHT22;2951;47.712;9.400;2022-10-31T08:35:36;10.60;99.90
5850;DHT22;2951;47.712;9.400;2022-10-31T08:38:02;10.80;99.90
5850;DHT22;2951;47.712;9.400;2022-10-31T08:40:30;10.70;99.90
5850;DHT22;2951;47.712;9.400;2022-10-31T08:42:58;10.60;99.90
5850;DHT22;2951;47.712;9.400;2022-10-31T08:45:25;10.80;99.90
5850;DHT22;2951;47.712;9.400;2022-10-31T08:47:56;10.80;99.90
5850;DHT22;2951;47.712;9.400;2022-10-31T08:50:24;10.70;99.90
5850;DHT22;2951;47.712;9.400;2022-10-31T08:52:50;10.60;99.90
5850;DHT22;2951;47.712;9.400;2022-10-31T08:55:30;10.70;99.90
5850;DHT22;2951;47.712;9.400;2022-10-31T08:57:57;11.00;99.90
5850;DHT22;2951;47.712;9.400;2022-10-31T09:00:24;11.00;99.90
5850;DHT22;2951;47.712;9.400;2022-10-31T09:02:57;11.10;99.90
5850;DHT22;2951;47.712;9.400;2022-10-31T09:05:24;10.90;99.90
5850;DHT22;2951;47.712;9.400;2022-10-31T09:07:51;10.90;99.90
5850;DHT22;2951;47.712;9.400;2022-10-31T09:10:18;11.00;99.90
5850;DHT22;2951;47.712;9.400;2022-10-31T09:12:44;11.00;99.90
5850;DHT22;2951;47.712;9.400;2022-10-31T09:15:11;11.00;99.90
5850;DHT22;2951;47.712;9.400;2022-10-31T09:17:38;10.90;99.90
5850;DHT22;2951;47.712;9.400;2022-10-31T09:20:04;10.80;99.90
5850;DHT22;2951;47.712;9.400;2022-10-31T09:22:31;10.70;99.90
5850;DHT22;2951;47.712;9.400;2022-10-31T09:24:58;10.70;99.90
5850;DHT22;2951;47.712;9.400;2022-10-31T09:27:24;10.80;99.90
5850;DHT22;2951;47.712;9.400;2022-10-31T09:29:51;10.80;99.90
5850;DHT22;2951;47.712;9.400;2022-10-31T09:32:18;10.90;99.90
5850;DHT22;2951;47.712;9.400;2022-10-31T09:34:44;10.70;99.90
5850;DHT22;2951;47.712;9.400;2022-10-31T09:37:11;10.70;99.90
5850;DHT22;2951;47.712;9.400;2022-10-31T09:39:37;10.70;99.90
5850;DHT22;2951;47.712;9.400;2022-10-31T09:44:59;10.70;99.90
5850;DHT22;2951;47.712;9.400;2022-10-31T09:50:21;11.20;99.90
5850;DHT22;2951;47.712;9.400;2022-10-31T09:53:34;11.30;99.90
5850;DHT22;2951;47.712;9.400;2022-10-31T09:55:40;11.30;99.90
5850;DHT22;2951;47.712;9.400;2022-10-31T09:58:10;11.20;99.90
5850;DHT22;2951;47.712;9.400;2022-10-31T10:00:40;11.30;99.90
5850;DHT22;2951;47.712;9.400;2022-10-31T10:03:15;11.20;99.90
5850;DHT22;2951;47.712;9.400;2022-10-31T10:05:51;11.20;99.90
5850;DHT22;2951;47.712;9.400;2022-10-31T10:08:19;11.20;99.90
5850;DHT22;2951;47.712;9.400;2022-10-31T10:10:55;11.40;99.90
5850;DHT22;2951;47.712;9.400;2022-10-31T10:21:25;11.60;99.90
5850;DHT22;2951;47.712;9.400;2022-10-31T10:24:01;11.60;99.90
5850;DHT22;2951;47.712;9.400;2022-10-31T10:26:34;11.60;99.90
5850;DHT22;2951;47.712;9.400;2022-10-31T10:29:03;11.70;99.90
5850;DHT22;2951;47.712;9.400;2022-10-31T10:31:37;11.70;99.90
5850;DHT22;2951;47.712;9.400;2022-10-31T10:34:17;11.70;99.90
5850;DHT22;2951;47.712;9.400;2022-10-31T10:36:50;11.70;99.90
5850;DHT22;2951;47.712;9.400;2022-10-31T10:39:22;11.50;99.90
5850;DHT22;2951;47.712;9.400;2022-10-31T10:41:50;11.80;99.90
5850;DHT22;2951;47.712;9.400;2022-10-31T10:44:37;12.00;99.90
5850;DHT22;2951;47.712;9.400;2022-10-31T10:47:23;12.10;99.90
5850;DHT22;2951;47.712;9.400;2022-10-31T10:50:17;12.30;99.90
5850;DHT22;2951;47.712;9.400;2022-10-31T10:52:58;12.30;99.90
5850;DHT22;2951;47.712;9.400;2022-10-31T10:58:21;12.30;99.90
5850;DHT22;2951;47.712;9.400;2022-10-31T11:00:47;12.30;99.90
5850;DHT22;2951;47.712;9.400;2022-10-31T11:03:16;12.40;99.90
5850;DHT22;2951;47.712;9.400;2022-10-31T11:08:23;12.60;99.90
5850;DHT22;2951;47.712;9.400;2022-10-31T11:11:00;12.70;99.90
5850;DHT22;2951;47.712;9.400;2022-10-31T11:13:28;12.80;99.90
5850;DHT22;2951;47.712;9.400;2022-10-31T11:16:08;12.80;99.90
5850;DHT22;2951;47.712;9.400;2022-10-31T11:18:41;12.80;99.90
5850;DHT22;2951;47.712;9.400;2022-10-31T11:21:19;12.80;99.90
5850;DHT22;2951;47.712;9.400;2022-10-31T11:23:46;12.70;99.90
5850;DHT22;2951;47.712;9.400;2022-10-31T11:26:18;12.70;99.90
5850;DHT22;2951;47.712;9.400;2022-10-31T11:28:55;12.80;99.90
5850;DHT22;2951;47.712;9.400;2022-10-31T11:31:22;12.80;99.90
5850;DHT22;2951;47.712;9.400;2022-10-31T11:33:50;12.80;99.90
5850;DHT22;2951;47.712;9.400;2022-10-31T11:36:21;12.80;99.90
5850;DHT22;2951;47.712;9.400;2022-10-31T11:38:49;12.80;99.90
5850;DHT22;2951;47.712;9.400;2022-10-31T11:41:23;12.90;99.90
5850;DHT22;2951;47.712;9.400;2022-10-31T11:43:54;12.80;99.90
5850;DHT22;2951;47.712;9.400;2022-10-31T11:47:04;12.70;99.90
5850;DHT22;2951;47.712;9.400;2022-10-31T11:49:25;12.70;99.90
5850;DHT22;2951;47.712;9.400;2022-10-31T11:51:54;12.60;99.90
5850;DHT22;2951;47.712;9.400;2022-10-31T11:54:22;12.70;99.90
5850;DHT22;2951;47.712;9.400;2022-10-31T11:56:50;12.70;99.90
5850;DHT22;2951;47.712;9.400;2022-10-31T11:59:27;12.70;99.90
5850;DHT22;2951;47.712;9.400;2022-10-31T12:01:55;12.60;99.90
5850;DHT22;2951;47.712;9.400;2022-10-31T12:04:24;12.60;99.90
5850;DHT22;2951;47.712;9.400;2022-10-31T12:06:54;12.50;99.90
5850;DHT22;2951;47.712;9.400;2022-10-31T12:09:22;12.50;99.90
5850;DHT22;2951;47.712;9.400;2022-10-31T12:14:19;12.60;99.90
5850;DHT22;2951;47.712;9.400;2022-10-31T12:16:57;12.60;99.90
5850;DHT22;2951;47.712;9.400;2022-10-31T12:32:38;12.80;99.90
5850;DHT22;2951;47.712;9.400;2022-10-31T12:48:00;13.20;99.90
5850;DHT22;2951;47.712;9.400;2022-10-31T12:58:23;13.40;99.90
5850;DHT22;2951;47.712;9.400;2022-10-31T13:00:57;13.50;99.90
5850;DHT22;2951;47.712;9.400;2022-10-31T13:03:30;13.60;99.90
5850;DHT22;2951;47.712;9.400;2022-10-31T13:06:03;13.90;99.90
5850;DHT22;2951;47.712;9.400;2022-10-31T13:13:38;14.00;99.90
5850;DHT22;2951;47.712;9.400;2022-10-31T13:16:16;14.10;99.90
5850;DHT22;2951;47.712;9.400;2022-10-31T13:18:47;14.10;99.90
5850;DHT22;2951;47.712;9.400;2022-10-31T13:21:17;13.80;99.90
5850;DHT22;2951;47.712;9.400;2022-10-31T13:23:45;13.70;99.90
5850;DHT22;2951;47.712;9.400;2022-10-31T13:28:55;14.00;99.90
5850;DHT22;2951;47.712;9.400;2022-10-31T13:31:23;14.10;99.90
5850;DHT22;2951;47.712;9.400;2022-10-31T13:33:55;14.20;99.90
5850;DHT22;2951;47.712;9.400;2022-10-31T13:36:28;14.10;99.90
5850;DHT22;2951;47.712;9.400;2022-10-31T13:46:41;14.30;99.90
5850;DHT22;2951;47.712;9.400;2022-10-31T13:52:05;14.40;99.90
5850;DHT22;2951;47.712;9.400;2022-10-31T13:54:32;14.60;99.90
5850;DHT22;2951;47.712;9.400;2022-10-31T13:56:59;14.80;99.90
5850;DHT22;2951;47.712;9.400;2022-10-31T13:59:27;15.20;99.90
5850;DHT22;2951;47.712;9.400;2022-10-31T14:01:55;15.70;99.90
5850;DHT22;2951;47.712;9.400;2022-10-31T14:04:26;16.10;99.90
5850;DHT22;2951;47.712;9.400;2022-10-31T14:09:31;16.90;99.90
5850;DHT22;2951;47.712;9.400;2022-10-31T14:12:00;17.30;99.90
5850;DHT22;2951;47.712;9.400;2022-10-31T14:14:32;17.90;99.90
5850;DHT22;2951;47.712;9.400;2022-10-31T14:16:59;17.90;99.90
5850;DHT22;2951;47.712;9.400;2022-10-31T14:19:26;17.90;99.90
5850;DHT22;2951;47.712;9.400;2022-10-31T14:21:53;17.50;99.90
5850;DHT22;2951;47.712;9.400;2022-10-31T14:29:29;17.20;99.90
5850;DHT22;2951;47.712;9.400;2022-10-31T14:34:33;17.30;99.90
5850;DHT22;2951;47.712;9.400;2022-10-31T14:37:08;17.50;99.90
5850;DHT22;2951;47.712;9.400;2022-10-31T14:42:15;17.50;99.90
5850;DHT22;2951;47.712;9.400;2022-10-31T14:44:49;17.60;99.90
5850;DHT22;2951;47.712;9.400;2022-10-31T14:52:12;16.80;99.90
5850;DHT22;2951;47.712;9.400;2022-10-31T14:54:41;16.20;99.90
5850;DHT22;2951;47.712;9.400;2022-10-31T14:57:24;15.50;99.90
5850;DHT22;2951;47.712;9.400;2022-10-31T14:59:53;15.20;99.90
5850;DHT22;2951;47.712;9.400;2022-10-31T15:02:29;15.10;99.90
5850;DHT22;2951;47.712;9.400;2022-10-31T15:04:57;14.70;99.90
5850;DHT22;2951;47.712;9.400;2022-10-31T15:07:26;14.40;99.90
5850;DHT22;2951;47.712;9.400;2022-10-31T15:09:57;14.10;99.90
5850;DHT22;2951;47.712;9.400;2022-10-31T15:14:54;13.70;99.90
5850;DHT22;2951;47.712;9.400;2022-10-31T15:17:22;13.60;99.90
5850;DHT22;2951;47.712;9.400;2022-10-31T15:19:49;13.50;99.90
5850;DHT22;2951;47.712;9.400;2022-10-31T15:22:17;13.40;99.90
5850;DHT22;2951;47.712;9.400;2022-10-31T15:24:44;13.40;99.90
5850;DHT22;2951;47.712;9.400;2022-10-31T15:27:20;13.30;99.90
5850;DHT22;2951;47.712;9.400;2022-10-31T15:29:48;13.20;99.90
5850;DHT22;2951;47.712;9.400;2022-10-31T15:32:18;13.30;99.90
5850;DHT22;2951;47.712;9.400;2022-10-31T15:34:45;13.10;99.90
5850;DHT22;2951;47.712;9.400;2022-10-31T15:37:12;13.20;99.90
5850;DHT22;2951;47.712;9.400;2022-10-31T15:39:40;13.00;99.90
5850;DHT22;2951;47.712;9.400;2022-10-31T15:42:40;12.90;99.90
5850;DHT22;2951;47.712;9.400;2022-10-31T15:47:27;12.90;99.90
5850;DHT22;2951;47.712;9.400;2022-10-31T15:49:59;12.70;99.90
5850;DHT22;2951;47.712;9.400;2022-10-31T15:55:03;12.60;99.90
5850;DHT22;2951;47.712;9.400;2022-10-31T15:57:31;12.60;99.90
5850;DHT22;2951;47.712;9.400;2022-10-31T15:59:58;12.60;99.90
5850;DHT22;2951;47.712;9.400;2022-10-31T16:02:26;12.40;99.90
5850;DHT22;2951;47.712;9.400;2022-10-31T16:07:19;12.20;99.90
5850;DHT22;2951;47.712;9.400;2022-10-31T16:09:56;12.10;99.90
5850;DHT22;2951;47.712;9.400;2022-10-31T16:12:24;12.00;99.90
5850;DHT22;2951;47.712;9.400;2022-10-31T16:14:51;11.90;99.90
5850;DHT22;2951;47.712;9.400;2022-10-31T16:17:20;11.90;99.90
5850;DHT22;2951;47.712;9.400;2022-10-31T16:19:49;11.80;99.90
5850;DHT22;2951;47.712;9.400;2022-10-31T16:22:21;11.90;99.90
5850;DHT22;2951;47.712;9.400;2022-10-31T16:24:49;11.90;99.90
5850;DHT22;2951;47.712;9.400;2022-10-31T16:32:57;11.80;99.90
5850;DHT22;2951;47.712;9.400;2022-10-31T16:35:35;11.80;99.90
5850;DHT22;2951;47.712;9.400;2022-10-31T16:38:03;11.70;99.90
5850;DHT22;2951;47.712;9.400;2022-10-31T16:40:29;11.60;99.90
5850;DHT22;2951;47.712;9.400;2022-10-31T16:42:57;11.70;99.90
5850;DHT22;2951;47.712;9.400;2022-10-31T16:45:26;11.60;99.90
5850;DHT22;2951;47.712;9.400;2022-10-31T16:47:53;11.70;99.90
5850;DHT22;2951;47.712;9.400;2022-10-31T16:50:21;11.60;99.90
5850;DHT22;2951;47.712;9.400;2022-10-31T16:52:48;11.60;99.90
5850;DHT22;2951;47.712;9.400;2022-10-31T16:55:35;11.60;99.90
5850;DHT22;2951;47.712;9.400;2022-10-31T16:58:07;11.40;99.90
5850;DHT22;2951;47.712;9.400;2022-10-31T17:00:35;11.40;99.90
5850;DHT22;2951;47.712;9.400;2022-10-31T17:03:02;11.40;99.90
5850;DHT22;2951;47.712;9.400;2022-10-31T17:05:30;11.40;99.90
5850;DHT22;2951;47.712;9.400;2022-10-31T17:07:58;11.40;99.90
5850;DHT22;2951;47.712;9.400;2022-10-31T17:10:25;11.40;99.90
5850;DHT22;2951;47.712;9.400;2022-10-31T17:12:52;11.30;99.90
5850;DHT22;2951;47.712;9.400;2022-10-31T17:15:20;11.20;99.90
5850;DHT22;2951;47.712;9.400;2022-10-31T17:17:48;11.20;99.90
5850;DHT22;2951;47.712;9.400;2022-10-31T17:22:48;11.10;99.90
5850;DHT22;2951;47.712;9.400;2022-10-31T17:25:16;11.00;99.90
5850;DHT22;2951;47.712;9.400;2022-10-31T17:27:43;11.00;99.90
5850;DHT22;2951;47.712;9.400;2022-10-31T17:30:12;11.00;99.90
5850;DHT22;2951;47.712;9.400;2022-10-31T17:32:39;11.00;99.90
5850;DHT22;2951;47.712;9.400;2022-10-31T17:35:07;11.00;99.90
5850;DHT22;2951;47.712;9.400;2022-10-31T17:37:34;10.90;99.90
5850;DHT22;2951;47.712;9.400;2022-10-31T17:40:01;10.90;99.90
5850;DHT22;2951;47.712;9.400;2022-10-31T17:42:28;10.90;99.90
5850;DHT22;2951;47.712;9.400;2022-10-31T17:44:54;10.90;99.90
5850;DHT22;2951;47.712;9.400;2022-10-31T17:47:21;10.80;99.90
5850;DHT22;2951;47.712;9.400;2022-10-31T17:49:48;10.80;99.90
5850;DHT22;2951;47.712;9.400;2022-10-31T17:52:14;10.80;99.90
5850;DHT22;2951;47.712;9.400;2022-10-31T17:54:41;10.70;99.90
5850;DHT22;2951;47.712;9.400;2022-10-31T17:57:08;10.60;99.90
5850;DHT22;2951;47.712;9.400;2022-10-31T17:59:34;10.50;99.90
5850;DHT22;2951;47.712;9.400;2022-10-31T18:02:01;10.50;99.90
5850;DHT22;2951;47.712;9.400;2022-10-31T18:04:34;10.40;99.90
5850;DHT22;2951;47.712;9.400;2022-10-31T18:07:03;10.40;99.90
5850;DHT22;2951;47.712;9.400;2022-10-31T18:09:29;10.30;99.90
5850;DHT22;2951;47.712;9.400;2022-10-31T18:11:56;10.20;99.90
5850;DHT22;2951;47.712;9.400;2022-10-31T18:14:23;10.20;99.90
5850;DHT22;2951;47.712;9.400;2022-10-31T18:16:49;10.10;99.90
5850;DHT22;2951;47.712;9.400;2022-10-31T18:19:17;10.00;99.90
5850;DHT22;2951;47.712;9.400;2022-10-31T18:21:44;10.00;99.90
5850;DHT22;2951;47.712;9.400;2022-10-31T18:24:11;10.00;99.90
5850;DHT22;2951;47.712;9.400;2022-10-31T18:26:38;9.80;99.90
5850;DHT22;2951;47.712;9.400;2022-10-31T18:29:05;9.80;99.90
5850;DHT22;2951;47.712;9.400;2022-10-31T18:31:31;9.80;99.90